sensor_id;sensor_type;location;lat;lon;timestamp;pressure;altitude;pressure_sealevel;temperature;humidity
74242;BME280;62599;49.146;10.426;2022-11-20T00:00:37;95234.50;;;0.62;100.00
74242;BME280;62599;49.146;10.426;2022-11-20T00:03:02;95229.00;;;0.53;100.00
74242;BME280;62599;49.146;10.426;2022-11-20T00:05:32;95225.63;;;0.47;100.00
74242;BME280;62599;49.146;10.426;2022-11-20T00:07:58;95226.44;;;0.43;100.00
74242;BME280;62599;49.146;10.426;2022-11-20T00:10:23;95224.06;;;0.41;100.00
74242;BME280;62599;49.146;10.426;2022-11-20T00:12:48;95232.56;;;0.38;100.00
74242;BME280;62599;49.146;10.426;2022-11-20T00:15:14;95236.84;;;0.34;100.00
74242;BME280;62599;49.146;10.426;2022-11-20T00:17:39;95228.38;;;0.32;100.00
74242;BME280;62599;49.146;10.426;2022-11-20T00:20:05;95234.13;;;0.39;100.00
74242;BME280;62599;49.146;10.426;2022-11-20T00:22:31;95223.78;;;0.43;100.00
74242;BME280;62599;49.146;10.426;2022-11-20T00:24:56;95229.31;;;0.46;100.00
74242;BME280;62599;49.146;10.426;2022-11-20T00:27:23;95233.28;;;0.49;100.00
74242;BME280;62599;49.146;10.426;2022-11-20T00:29:48;95235.63;;;0.51;100.00
74242;BME280;62599;49.146;10.426;2022-11-20T00:32:14;95230.84;;;0.53;100.00
74242;BME280;62599;49.146;10.426;2022-11-20T00:34:39;95242.00;;;0.50;100.00
74242;BME280;62599;49.146;10.426;2022-11-20T00:37:04;95254.47;;;0.49;100.00
74242;BME280;62599;49.146;10.426;2022-11-20T00:39:30;95244.41;;;0.51;100.00
74242;BME280;62599;49.146;10.426;2022-11-20T00:41:55;95243.09;;;0.48;100.00
74242;BME280;62599;49.146;10.426;2022-11-20T00:44:20;95234.34;;;0.48;100.00
74242;BME280;62599;49.146;10.426;2022-11-20T00:46:46;95241.97;;;0.55;100.00
74242;BME280;62599;49.146;10.426;2022-11-20T00:49:11;95241.91;;;0.60;100.00
74242;BME280;62599;49.146;10.426;2022-11-20T00:51:36;95250.88;;;0.64;100.00
74242;BME280;62599;49.146;10.426;2022-11-20T00:54:02;95241.31;;;0.68;100.00
74242;BME280;62599;49.146;10.426;2022-11-20T00:56:27;95239.19;;;0.70;100.00
74242;BME280;62599;49.146;10.426;2022-11-20T00:58:53;95249.00;;;0.69;100.00
74242;BME280;62599;49.146;10.426;2022-11-20T01:01:24;95244.19;;;0.71;100.00
74242;BME280;62599;49.146;10.426;2022-11-20T01:03:52;95244.75;;;0.68;100.00
74242;BME280;62599;49.146;10.426;2022-11-20T01:08:45;95250.56;;;0.70;100.00
74242;BME280;62599;49.146;10.426;2022-11-20T01:11:13;95252.13;;;0.71;100.00
74242;BME280;62599;49.146;10.426;2022-11-20T01:13:39;95249.47;;;0.77;100.00
74242;BME280;62599;49.146;10.426;2022-11-20T01:16:16;95244.66;;;0.79;100.00
74242;BME280;62599;49.146;10.426;2022-11-20T01:18:44;95243.53;;;0.85;100.00
74242;BME280;62599;49.146;10.426;2022-11-20T01:21:12;95244.63;;;0.84;100.00
74242;BME280;62599;49.146;10.426;2022-11-20T01:23:40;95250.66;;;0.89;100.00
74242;BME280;62599;49.146;10.426;2022-11-20T01:26:09;95248.00;;;0.89;100.00
74242;BME280;62599;49.146;10.426;2022-11-20T01:28:35;95243.47;;;0.90;100.00
74242;BME280;62599;49.146;10.426;2022-11-20T01:31:02;95247.72;;;0.91;100.00
74242;BME280;62599;49.146;10.426;2022-11-20T01:33:35;95249.78;;;0.94;100.00
74242;BME280;62599;49.146;10.426;2022-11-20T01:36:05;95240.78;;;0.95;100.00
74242;BME280;62599;49.146;10.426;2022-11-20T01:38:31;95240.50;;;0.96;100.00
74242;BME280;62599;49.146;10.426;2022-11-20T01:40:56;95242.06;;;0.98;100.00
74242;BME280;62599;49.146;10.426;2022-11-20T01:43:22;95229.91;;;0.96;100.00
74242;BME280;62599;49.146;10.426;2022-11-20T01:48:33;95234.94;;;0.98;100.00
74242;BME280;62599;49.146;10.426;2022-11-20T01:51:02;95229.81;;;1.02;100.00
74242;BME280;62599;49.146;10.426;2022-11-20T01:53:32;95219.22;;;1.02;100.00
74242;BME280;62599;49.146;10.426;2022-11-20T01:56:01;95226.81;;;1.13;100.00
74242;BME280;62599;49.146;10.426;2022-11-20T01:58:33;95231.56;;;1.16;100.00
74242;BME280;62599;49.146;10.426;2022-11-20T02:00:59;95232.56;;;1.20;100.00
74242;BME280;62599;49.146;10.426;2022-11-20T02:03:25;95221.94;;;1.20;100.00
74242;BME280;62599;49.146;10.426;2022-11-20T02:05:57;95234.13;;;1.22;100.00
74242;BME280;62599;49.146;10.426;2022-11-20T02:08:24;95221.94;;;1.20;100.00
74242;BME280;62599;49.146;10.426;2022-11-20T02:10:50;95230.41;;;1.23;100.00
74242;BME280;62599;49.146;10.426;2022-11-20T02:13:15;95219.00;;;1.22;100.00
74242;BME280;62599;49.146;10.426;2022-11-20T02:16:00;95222.97;;;1.25;100.00
74242;BME280;62599;49.146;10.426;2022-11-20T02:18:26;95226.25;;;1.16;100.00
74242;BME280;62599;49.146;10.426;2022-11-20T02:21:01;95219.31;;;1.20;100.00
74242;BME280;62599;49.146;10.426;2022-11-20T02:26:27;95226.09;;;1.27;100.00
74242;BME280;62599;49.146;10.426;2022-11-20T02:28:53;95214.16;;;1.29;100.00
74242;BME280;62599;49.146;10.426;2022-11-20T02:31:19;95220.25;;;1.30;100.00
74242;BME280;62599;49.146;10.426;2022-11-20T02:33:44;95213.88;;;1.31;100.00
74242;BME280;62599;49.146;10.426;2022-11-20T02:36:14;95217.31;;;1.31;100.00
74242;BME280;62599;49.146;10.426;2022-11-20T02:38:41;95209.91;;;1.28;100.00
74242;BME280;62599;49.146;10.426;2022-11-20T02:41:07;95212.50;;;1.33;100.00
74242;BME280;62599;49.146;10.426;2022-11-20T02:43:32;95215.09;;;1.38;100.00
74242;BME280;62599;49.146;10.426;2022-11-20T02:45:57;95206.84;;;1.40;100.00
74242;BME280;62599;49.146;10.426;2022-11-20T02:48:23;95212.69;;;1.42;100.00
74242;BME280;62599;49.146;10.426;2022-11-20T02:50:48;95205.22;;;1.44;100.00
74242;BME280;62599;49.146;10.426;2022-11-20T02:53:13;95204.63;;;1.47;100.00
74242;BME280;62599;49.146;10.426;2022-11-20T02:55:39;95196.16;;;1.45;100.00
74242;BME280;62599;49.146;10.426;2022-11-20T02:58:04;95198.56;;;1.47;100.00
74242;BME280;62599;49.146;10.426;2022-11-20T03:00:30;95201.91;;;1.52;100.00
74242;BME280;62599;49.146;10.426;2022-11-20T03:02:55;95206.44;;;1.52;100.00
74242;BME280;62599;49.146;10.426;2022-11-20T03:05:21;95203.50;;;1.53;100.00
74242;BME280;62599;49.146;10.426;2022-11-20T03:07:46;95202.44;;;1.54;100.00
74242;BME280;62599;49.146;10.426;2022-11-20T03:10:11;95197.63;;;1.56;100.00
74242;BME280;62599;49.146;10.426;2022-11-20T03:12:37;95203.16;;;1.60;100.00
74242;BME280;62599;49.146;10.426;2022-11-20T03:15:03;95194.91;;;1.61;100.00
74242;BME280;62599;49.146;10.426;2022-11-20T03:17:28;95191.38;;;1.66;100.00
74242;BME280;62599;49.146;10.426;2022-11-20T03:19:54;95195.34;;;1.68;100.00
74242;BME280;62599;49.146;10.426;2022-11-20T03:22:20;95189.94;;;1.74;100.00
74242;BME280;62599;49.146;10.426;2022-11-20T03:24:45;95192.25;;;1.80;100.00
74242;BME280;62599;49.146;10.426;2022-11-20T03:27:11;95183.41;;;1.85;100.00
74242;BME280;62599;49.146;10.426;2022-11-20T03:29:36;95187.50;;;1.96;100.00
74242;BME280;62599;49.146;10.426;2022-11-20T03:32:01;95181.53;;;2.04;100.00
74242;BME280;62599;49.146;10.426;2022-11-20T03:34:27;95195.16;;;2.16;100.00
74242;BME280;62599;49.146;10.426;2022-11-20T03:36:52;95182.28;;;2.24;100.00
74242;BME280;62599;49.146;10.426;2022-11-20T03:39:17;95177.28;;;2.36;100.00
74242;BME280;62599;49.146;10.426;2022-11-20T03:41:43;95187.47;;;2.48;100.00
74242;BME280;62599;49.146;10.426;2022-11-20T03:44:10;95184.44;;;2.54;100.00
74242;BME280;62599;49.146;10.426;2022-11-20T03:46:36;95183.97;;;2.66;100.00
74242;BME280;62599;49.146;10.426;2022-11-20T03:49:02;95185.16;;;2.74;100.00
74242;BME280;62599;49.146;10.426;2022-11-20T03:51:33;95175.19;;;2.79;100.00
74242;BME280;62599;49.146;10.426;2022-11-20T03:54:03;95174.81;;;2.86;100.00
74242;BME280;62599;49.146;10.426;2022-11-20T03:56:32;95176.88;;;2.89;100.00
74242;BME280;62599;49.146;10.426;2022-11-20T03:58:57;95186.84;;;2.97;100.00
74242;BME280;62599;49.146;10.426;2022-11-20T04:01:35;95179.38;;;2.99;100.00
74242;BME280;62599;49.146;10.426;2022-11-20T04:04:02;95178.19;;;3.05;100.00
74242;BME280;62599;49.146;10.426;2022-11-20T04:06:36;95180.75;;;3.10;100.00
74242;BME280;62599;49.146;10.426;2022-11-20T04:09:02;95182.81;;;3.13;100.00
74242;BME280;62599;49.146;10.426;2022-11-20T04:11:33;95179.56;;;3.17;100.00
74242;BME280;62599;49.146;10.426;2022-11-20T04:14:00;95184.28;;;3.20;100.00
74242;BME280;62599;49.146;10.426;2022-11-20T04:16:29;95172.06;;;3.19;100.00
74242;BME280;62599;49.146;10.426;2022-11-20T04:18:57;95181.34;;;3.21;100.00
74242;BME280;62599;49.146;10.426;2022-11-20T04:21:24;95171.97;;;3.24;100.00
74242;BME280;62599;49.146;10.426;2022-11-20T04:23:50;95182.03;;;3.27;100.00
74242;BME280;62599;49.146;10.426;2022-11-20T04:26:18;95173.22;;;3.26;100.00
74242;BME280;62599;49.146;10.426;2022-11-20T04:28:43;95169.50;;;3.27;100.00
74242;BME280;62599;49.146;10.426;2022-11-20T04:31:18;95170.75;;;3.30;100.00
74242;BME280;62599;49.146;10.426;2022-11-20T04:33:44;95176.09;;;3.30;100.00
74242;BME280;62599;49.146;10.426;2022-11-20T04:36:11;95174.22;;;3.30;100.00
74242;BME280;62599;49.146;10.426;2022-11-20T04:38:38;95175.81;;;3.31;100.00
74242;BME280;62599;49.146;10.426;2022-11-20T04:41:05;95171.28;;;3.32;100.00
74242;BME280;62599;49.146;10.426;2022-11-20T04:43:32;95175.03;;;3.31;100.00
74242;BME280;62599;49.146;10.426;2022-11-20T04:45:58;95169.09;;;3.34;100.00
74242;BME280;62599;49.146;10.426;2022-11-20T04:48:24;95174.41;;;3.34;100.00
74242;BME280;62599;49.146;10.426;2022-11-20T04:50:50;95181.59;;;3.33;100.00
74242;BME280;62599;49.146;10.426;2022-11-20T04:53:17;95181.59;;;3.33;100.00
74242;BME280;62599;49.146;10.426;2022-11-20T04:55:42;95173.53;;;3.38;100.00
74242;BME280;62599;49.146;10.426;2022-11-20T04:58:08;95174.91;;;3.36;100.00
74242;BME280;62599;49.146;10.426;2022-11-20T05:00:33;95180.72;;;3.38;100.00
74242;BME280;62599;49.146;10.426;2022-11-20T05:02:59;95169.09;;;3.34;100.00
74242;BME280;62599;49.146;10.426;2022-11-20T05:05:24;95174.41;;;3.34;100.00
74242;BME280;62599;49.146;10.426;2022-11-20T05:07:49;95174.00;;;3.41;100.00
74242;BME280;62599;49.146;10.426;2022-11-20T05:10:15;95177.56;;;3.36;100.00
74242;BME280;62599;49.146;10.426;2022-11-20T05:12:41;95161.91;;;3.34;100.00
74242;BME280;62599;49.146;10.426;2022-11-20T05:15:06;95172.25;;;3.36;100.00
74242;BME280;62599;49.146;10.426;2022-11-20T05:17:32;95169.91;;;3.34;100.00
74242;BME280;62599;49.146;10.426;2022-11-20T05:19:57;95169.09;;;3.34;100.00
74242;BME280;62599;49.146;10.426;2022-11-20T05:22:23;95170.69;;;3.35;100.00
74242;BME280;62599;49.146;10.426;2022-11-20T05:24:48;95169.91;;;3.34;100.00
74242;BME280;62599;49.146;10.426;2022-11-20T05:27:13;95170.19;;;3.33;100.00
74242;BME280;62599;49.146;10.426;2022-11-20T05:29:39;95172.56;;;3.34;100.00
74242;BME280;62599;49.146;10.426;2022-11-20T05:32:04;95176.47;;;3.37;100.00
74242;BME280;62599;49.146;10.426;2022-11-20T05:34:32;95171.47;;;3.35;100.00
74242;BME280;62599;49.146;10.426;2022-11-20T05:36:57;95172.84;;;3.33;100.00
74242;BME280;62599;49.146;10.426;2022-11-20T05:39:23;95177.06;;;3.34;100.00
74242;BME280;62599;49.146;10.426;2022-11-20T05:41:48;95178.75;;;3.30;100.00
74242;BME280;62599;49.146;10.426;2022-11-20T05:44:34;95177.19;;;3.29;100.00
74242;BME280;62599;49.146;10.426;2022-11-20T05:46:59;95181.72;;;3.28;100.00
74242;BME280;62599;49.146;10.426;2022-11-20T05:49:24;95167.44;;;3.24;100.00
74242;BME280;62599;49.146;10.426;2022-11-20T05:51:50;95177.28;;;3.24;100.00
74242;BME280;62599;49.146;10.426;2022-11-20T05:54:15;95168.94;;;3.17;100.00
74242;BME280;62599;49.146;10.426;2022-11-20T05:56:41;95167.53;;;3.19;100.00
74242;BME280;62599;49.146;10.426;2022-11-20T05:59:06;95168.94;;;3.17;100.00
74242;BME280;62599;49.146;10.426;2022-11-20T06:01:31;95175.03;;;3.17;100.00
74242;BME280;62599;49.146;10.426;2022-11-20T06:03:57;95179.06;;;3.14;100.00
74242;BME280;62599;49.146;10.426;2022-11-20T06:06:22;95172.66;;;3.16;100.00
74242;BME280;62599;49.146;10.426;2022-11-20T06:08:48;95180.94;;;3.14;100.00
74242;BME280;62599;49.146;10.426;2022-11-20T06:11:15;95177.00;;;3.11;100.00
74242;BME280;62599;49.146;10.426;2022-11-20T06:13:41;95172.16;;;3.13;100.00
74242;BME280;62599;49.146;10.426;2022-11-20T06:16:06;95174.31;;;3.11;100.00
74242;BME280;62599;49.146;10.426;2022-11-20T06:18:32;95174.63;;;3.10;100.00
74242;BME280;62599;49.146;10.426;2022-11-20T06:21:03;95172.88;;;3.05;100.00
74242;BME280;62599;49.146;10.426;2022-11-20T06:23:30;95177.28;;;3.10;100.00
74242;BME280;62599;49.146;10.426;2022-11-20T06:25:56;95179.97;;;3.10;100.00
74242;BME280;62599;49.146;10.426;2022-11-20T06:28:21;95180.22;;;3.08;100.00
74242;BME280;62599;49.146;10.426;2022-11-20T06:30:47;95178.38;;;3.09;100.00
74242;BME280;62599;49.146;10.426;2022-11-20T06:33:12;95180.16;;;3.13;100.00
74242;BME280;62599;49.146;10.426;2022-11-20T06:35:37;95180.94;;;3.14;100.00
74242;BME280;62599;49.146;10.426;2022-11-20T06:38:03;95182.13;;;3.08;100.00
74242;BME280;62599;49.146;10.426;2022-11-20T06:40:28;95186.06;;;3.10;100.00
74242;BME280;62599;49.146;10.426;2022-11-20T06:42:54;95192.16;;;3.11;100.00
74242;BME280;62599;49.146;10.426;2022-11-20T06:45:20;95183.22;;;3.07;100.00
74242;BME280;62599;49.146;10.426;2022-11-20T06:47:48;95191.38;;;3.10;100.00
74242;BME280;62599;49.146;10.426;2022-11-20T06:50:17;95190.28;;;3.11;100.00
74242;BME280;62599;49.146;10.426;2022-11-20T06:52:42;95192.47;;;3.09;100.00
74242;BME280;62599;49.146;10.426;2022-11-20T06:55:08;95199.88;;;3.12;100.00
74242;BME280;62599;49.146;10.426;2022-11-20T06:57:36;95205.19;;;3.12;100.00
74242;BME280;62599;49.146;10.426;2022-11-20T07:00:05;95197.22;;;3.12;100.00
74242;BME280;62599;49.146;10.426;2022-11-20T07:02:30;95204.56;;;3.16;100.00
74242;BME280;62599;49.146;10.426;2022-11-20T07:04:56;95211.00;;;3.14;100.00
74242;BME280;62599;49.146;10.426;2022-11-20T07:07:21;95210.50;;;3.12;100.00
74242;BME280;62599;49.146;10.426;2022-11-20T07:09:46;95209.69;;;3.12;100.00
74242;BME280;62599;49.146;10.426;2022-11-20T07:12:12;95211.28;;;3.13;100.00
74242;BME280;62599;49.146;10.426;2022-11-20T07:14:37;95215.84;;;3.12;100.00
74242;BME280;62599;49.146;10.426;2022-11-20T07:17:03;95219.56;;;3.11;100.00
74242;BME280;62599;49.146;10.426;2022-11-20T07:19:28;95218.50;;;3.12;100.00
74242;BME280;62599;49.146;10.426;2022-11-20T07:21:53;95211.09;;;3.09;100.00
74242;BME280;62599;49.146;10.426;2022-11-20T07:24:19;95215.84;;;3.12;100.00
74242;BME280;62599;49.146;10.426;2022-11-20T07:26:46;95214.81;;;3.08;100.00
74242;BME280;62599;49.146;10.426;2022-11-20T07:29:12;95219.34;;;3.08;100.00
74242;BME280;62599;49.146;10.426;2022-11-20T07:31:37;95221.81;;;3.04;100.00
74242;BME280;62599;49.146;10.426;2022-11-20T07:34:02;95221.34;;;3.02;100.00
74242;BME280;62599;49.146;10.426;2022-11-20T07:36:28;95226.84;;;3.06;100.00
74242;BME280;62599;49.146;10.426;2022-11-20T07:38:53;95232.84;;;3.11;100.00
74242;BME280;62599;49.146;10.426;2022-11-20T07:41:19;95229.91;;;3.13;100.00
74242;BME280;62599;49.146;10.426;2022-11-20T07:43:44;95234.94;;;3.14;100.00
74242;BME280;62599;49.146;10.426;2022-11-20T07:46:10;95231.50;;;3.14;100.00
74242;BME280;62599;49.146;10.426;2022-11-20T07:48:35;95225.59;;;3.17;100.00
74242;BME280;62599;49.146;10.426;2022-11-20T07:51:01;95230.00;;;3.22;100.00
74242;BME280;62599;49.146;10.426;2022-11-20T07:53:26;95227.34;;;3.22;100.00
74242;BME280;62599;49.146;10.426;2022-11-20T07:55:52;95226.25;;;3.23;100.00
74242;BME280;62599;49.146;10.426;2022-11-20T07:58:18;95232.38;;;3.23;100.00
74242;BME280;62599;49.146;10.426;2022-11-20T08:00:44;95224.69;;;3.22;100.00
74242;BME280;62599;49.146;10.426;2022-11-20T08:03:09;95221.13;;;3.26;100.00
74242;BME280;62599;49.146;10.426;2022-11-20T08:05:38;95224.50;;;3.32;100.00
74242;BME280;62599;49.146;10.426;2022-11-20T08:08:03;95227.03;;;3.37;100.00
74242;BME280;62599;49.146;10.426;2022-11-20T08:10:29;95223.00;;;3.40;100.00
74242;BME280;62599;49.146;10.426;2022-11-20T08:12:54;95224.78;;;3.44;100.00
74242;BME280;62599;49.146;10.426;2022-11-20T08:15:39;95221.13;;;3.40;100.00
74242;BME280;62599;49.146;10.426;2022-11-20T08:18:07;95216.78;;;3.44;100.00
74242;BME280;62599;49.146;10.426;2022-11-20T08:20:34;95223.91;;;3.49;100.00
74242;BME280;62599;49.146;10.426;2022-11-20T08:23:01;95224.38;;;3.51;100.00
74242;BME280;62599;49.146;10.426;2022-11-20T08:25:31;95222.81;;;3.50;100.00
74242;BME280;62599;49.146;10.426;2022-11-20T08:28:01;95224.69;;;3.49;100.00
74242;BME280;62599;49.146;10.426;2022-11-20T08:30:27;95231.59;;;3.50;100.00
74242;BME280;62599;49.146;10.426;2022-11-20T08:32:53;95234.25;;;3.50;100.00
74242;BME280;62599;49.146;10.426;2022-11-20T08:35:22;95235.22;;;3.54;100.00
74242;BME280;62599;49.146;10.426;2022-11-20T08:37:48;95230.59;;;3.60;100.00
74242;BME280;62599;49.146;10.426;2022-11-20T08:40:13;95233.34;;;3.69;100.00
74242;BME280;62599;49.146;10.426;2022-11-20T08:42:47;95240.59;;;3.77;100.00
74242;BME280;62599;49.146;10.426;2022-11-20T08:45:12;95242.22;;;3.78;100.00
74242;BME280;62599;49.146;10.426;2022-11-20T08:47:38;95238.72;;;3.77;100.00
74242;BME280;62599;49.146;10.426;2022-11-20T08:50:03;95237.47;;;3.75;100.00
74242;BME280;62599;49.146;10.426;2022-11-20T08:52:29;95236.69;;;3.74;100.00
74242;BME280;62599;49.146;10.426;2022-11-20T08:54:54;95237.09;;;3.68;100.00
74242;BME280;62599;49.146;10.426;2022-11-20T08:57:19;95237.81;;;3.59;100.00
74242;BME280;62599;49.146;10.426;2022-11-20T08:59:45;95229.63;;;3.56;100.00
74242;BME280;62599;49.146;10.426;2022-11-20T09:02:12;95231.97;;;3.57;100.00
74242;BME280;62599;49.146;10.426;2022-11-20T09:04:38;95238.06;;;3.58;100.00
74242;BME280;62599;49.146;10.426;2022-11-20T09:07:03;95228.81;;;3.55;100.00
74242;BME280;62599;49.146;10.426;2022-11-20T09:09:28;95229.19;;;3.62;100.00
74242;BME280;62599;49.146;10.426;2022-11-20T09:11:54;95220.31;;;3.67;100.00
74242;BME280;62599;49.146;10.426;2022-11-20T09:14:19;95218.53;;;3.62;100.00
74242;BME280;62599;49.146;10.426;2022-11-20T09:16:45;95225.47;;;3.64;100.00
74242;BME280;62599;49.146;10.426;2022-11-20T09:19:11;95217.66;;;3.67;100.00
74242;BME280;62599;49.146;10.426;2022-11-20T09:21:37;95221.50;;;3.75;100.00
74242;BME280;62599;49.146;10.426;2022-11-20T09:24:02;95209.16;;;3.79;100.00
74242;BME280;62599;49.146;10.426;2022-11-20T09:26:28;95207.28;;;3.79;100.00
74242;BME280;62599;49.146;10.426;2022-11-20T09:28:54;95209.81;;;3.84;100.00
74242;BME280;62599;49.146;10.426;2022-11-20T09:31:23;95213.16;;;3.90;100.00
74242;BME280;62599;49.146;10.426;2022-11-20T09:33:49;95213.66;;;3.92;100.00
74242;BME280;62599;49.146;10.426;2022-11-20T09:36:18;95213.34;;;3.94;100.00
74242;BME280;62599;49.146;10.426;2022-11-20T09:38:45;95217.91;;;3.93;100.00
74242;BME280;62599;49.146;10.426;2022-11-20T09:41:31;95218.81;;;3.89;100.00
74242;BME280;62599;49.146;10.426;2022-11-20T09:47:38;95227.69;;;3.84;100.00
74242;BME280;62599;49.146;10.426;2022-11-20T09:55:39;95236.13;;;4.00;100.00
74242;BME280;62599;49.146;10.426;2022-11-20T09:58:17;95239.59;;;4.00;100.00
74242;BME280;62599;49.146;10.426;2022-11-20T10:00:45;95234.53;;;3.99;100.00
74242;BME280;62599;49.146;10.426;2022-11-20T10:03:21;95239.00;;;4.03;100.00
74242;BME280;62599;49.146;10.426;2022-11-20T10:05:52;95236.31;;;4.03;100.00
74242;BME280;62599;49.146;10.426;2022-11-20T10:08:40;95238.63;;;3.96;100.00
74242;BME280;62599;49.146;10.426;2022-11-20T10:11:46;95234.97;;;3.92;100.00
74242;BME280;62599;49.146;10.426;2022-11-20T10:17:12;95231.00;;;4.03;100.00
74242;BME280;62599;49.146;10.426;2022-11-20T10:27:56;95224.25;;;4.06;100.00
74242;BME280;62599;49.146;10.426;2022-11-20T10:30:27;95219.66;;;4.20;100.00
74242;BME280;62599;49.146;10.426;2022-11-20T10:32:55;95225.28;;;4.32;100.00
74242;BME280;62599;49.146;10.426;2022-11-20T10:38:00;95228.44;;;4.21;100.00
74242;BME280;62599;49.146;10.426;2022-11-20T10:40:43;95218.41;;;4.18;100.00
74242;BME280;62599;49.146;10.426;2022-11-20T10:45:55;95212.09;;;4.14;100.00
74242;BME280;62599;49.146;10.426;2022-11-20T10:48:24;95216.44;;;4.09;100.00
74242;BME280;62599;49.146;10.426;2022-11-20T10:54:00;95226.56;;;3.99;100.00
74242;BME280;62599;49.146;10.426;2022-11-20T10:59:35;95224.56;;;4.04;100.00
74242;BME280;62599;49.146;10.426;2022-11-20T11:02:40;95228.81;;;4.05;100.00
74242;BME280;62599;49.146;10.426;2022-11-20T11:07:39;95221.19;;;4.13;100.00
74242;BME280;62599;49.146;10.426;2022-11-20T11:13:07;95210.28;;;4.23;100.00
74242;BME280;62599;49.146;10.426;2022-11-20T11:15:38;95202.78;;;4.25;100.00
74242;BME280;62599;49.146;10.426;2022-11-20T11:18:05;95204.38;;;4.26;100.00
74242;BME280;62599;49.146;10.426;2022-11-20T11:20:33;95192.91;;;4.25;100.00
74242;BME280;62599;49.146;10.426;2022-11-20T11:22:59;95189.81;;;4.32;100.00
74242;BME280;62599;49.146;10.426;2022-11-20T11:25:36;95191.09;;;4.34;100.00
74242;BME280;62599;49.146;10.426;2022-11-20T11:28:20;95199.03;;;4.26;100.00
74242;BME280;62599;49.146;10.426;2022-11-20T11:30:46;95191.94;;;4.21;100.00
74242;BME280;62599;49.146;10.426;2022-11-20T11:35:50;95183.63;;;4.23;100.00
74242;BME280;62599;49.146;10.426;2022-11-20T11:38:39;95186.13;;;4.19;100.00
74242;BME280;62599;49.146;10.426;2022-11-20T11:41:06;95182.69;;;4.19;100.00
74242;BME280;62599;49.146;10.426;2022-11-20T11:43:36;95176.13;;;4.25;100.00
74242;BME280;62599;49.146;10.426;2022-11-20T11:48:57;95179.47;;;4.30;100.00
74242;BME280;62599;49.146;10.426;2022-11-20T11:51:39;95177.47;;;4.36;100.00
74242;BME280;62599;49.146;10.426;2022-11-20T11:54:15;95169.47;;;4.36;100.00
74242;BME280;62599;49.146;10.426;2022-11-20T11:56:42;95169.00;;;4.43;100.00
74242;BME280;62599;49.146;10.426;2022-11-20T11:59:12;95166.53;;;4.46;100.00
74242;BME280;62599;49.146;10.426;2022-11-20T12:01:47;95157.28;;;4.44;100.00
74242;BME280;62599;49.146;10.426;2022-11-20T12:04:48;95175.16;;;4.43;100.00
74242;BME280;62599;49.146;10.426;2022-11-20T12:07:51;95162.78;;;4.47;100.00
74242;BME280;62599;49.146;10.426;2022-11-20T12:10:20;95163.25;;;4.49;100.00
74242;BME280;62599;49.146;10.426;2022-11-20T12:12:50;95156.84;;;4.50;100.00
74242;BME280;62599;49.146;10.426;2022-11-20T12:15:29;95151.94;;;4.44;100.00
74242;BME280;62599;49.146;10.426;2022-11-20T12:17:55;95148.78;;;4.42;100.00
74242;BME280;62599;49.146;10.426;2022-11-20T12:20:26;95160.91;;;4.48;100.00
74242;BME280;62599;49.146;10.426;2022-11-20T12:23:00;95153.69;;;4.48;100.00
74242;BME280;62599;49.146;10.426;2022-11-20T12:25:32;95152.59;;;4.49;100.00
74242;BME280;62599;49.146;10.426;2022-11-20T12:31:13;95156.09;;;4.58;100.00
74242;BME280;62599;49.146;10.426;2022-11-20T12:33:44;95153.91;;;4.61;100.00
74242;BME280;62599;49.146;10.426;2022-11-20T12:39:07;95150.28;;;4.56;100.00
74242;BME280;62599;49.146;10.426;2022-11-20T12:41:49;95158.28;;;4.56;100.00
74242;BME280;62599;49.146;10.426;2022-11-20T12:56:03;95151.53;;;4.90;100.00
74242;BME280;62599;49.146;10.426;2022-11-20T13:01:31;95144.75;;;4.84;100.00
74242;BME280;62599;49.146;10.426;2022-11-20T13:07:12;95137.69;;;5.28;100.00
74242;BME280;62599;49.146;10.426;2022-11-20T13:09:46;95144.13;;;5.27;100.00
74242;BME280;62599;49.146;10.426;2022-11-20T13:17:36;95144.69;;;5.06;100.00
74242;BME280;62599;49.146;10.426;2022-11-20T13:20:06;95143.25;;;5.00;100.00
74242;BME280;62599;49.146;10.426;2022-11-20T13:27:49;95151.31;;;5.26;100.00
74242;BME280;62599;49.146;10.426;2022-11-20T13:30:17;95137.22;;;5.43;100.00
74242;BME280;62599;49.146;10.426;2022-11-20T13:32:54;95143.19;;;5.40;100.00
74242;BME280;62599;49.146;10.426;2022-11-20T13:38:19;95152.09;;;5.18;100.00
74242;BME280;62599;49.146;10.426;2022-11-20T13:46:08;95140.03;;;5.21;100.00
74242;BME280;62599;49.146;10.426;2022-11-20T13:48:39;95143.47;;;5.21;100.00
74242;BME280;62599;49.146;10.426;2022-11-20T13:53:58;95139.69;;;5.14;100.00
74242;BME280;62599;49.146;10.426;2022-11-20T13:59:02;95148.25;;;4.93;100.00
74242;BME280;62599;49.146;10.426;2022-11-20T14:01:31;95148.88;;;4.90;100.00
74242;BME280;62599;49.146;10.426;2022-11-20T14:03:58;95148.72;;;4.87;100.00
74242;BME280;62599;49.146;10.426;2022-11-20T14:06:29;95144.63;;;4.89;100.00
74242;BME280;62599;49.146;10.426;2022-11-20T14:09:01;95144.94;;;4.88;100.00
74242;BME280;62599;49.146;10.426;2022-11-20T14:11:30;95142.56;;;4.86;100.00
74242;BME280;62599;49.146;10.426;2022-11-20T14:14:13;95142.56;;;4.86;100.00
74242;BME280;62599;49.146;10.426;2022-11-20T14:16:40;95142.56;;;4.86;100.00
74242;BME280;62599;49.146;10.426;2022-11-20T14:21:54;95134.50;;;5.17;100.00
74242;BME280;62599;49.146;10.426;2022-11-20T14:24:30;95133.84;;;5.12;100.00
74242;BME280;62599;49.146;10.426;2022-11-20T14:26:56;95132.28;;;5.02;100.00
74242;BME280;62599;49.146;10.426;2022-11-20T14:29:34;95122.50;;;4.97;100.00
74242;BME280;62599;49.146;10.426;2022-11-20T14:32:01;95122.41;;;5.11;100.00
74242;BME280;62599;49.146;10.426;2022-11-20T14:34:31;95132.63;;;5.18;100.00
74242;BME280;62599;49.146;10.426;2022-11-20T14:37:00;95130.91;;;5.22;100.00